Plano's Hourly Summary for Tuesday, July 10, 2018
Hour Temp
(f)
RH
(%)
Solar Rad.
(MJ/m2)
Rainfall
(in)
Wind
(mph)
7/10/2018 12:00 AM 77 77 0 0 0.18
7/10/2018 1:00 AM 76 79 0 0 0.07
7/10/2018 2:00 AM 75 84 0 0 0.08
7/10/2018 3:00 AM 74 90 0 0 0
7/10/2018 4:00 AM 74 88 0 0 0.01
7/10/2018 5:00 AM 74 86 0 0 0.03
7/10/2018 6:00 AM 74 86 0 0 0.01
7/10/2018 7:00 AM 74 85 0.01 0 0.03
7/10/2018 8:00 AM 74 81 0.12 0 0
7/10/2018 9:00 AM 76 73 0.45 0 0.08
7/10/2018 10:00 AM 80 65 1.55 0 0.92
7/10/2018 11:00 AM 85 58 2.26 0 0.24
7/10/2018 12:00 PM 88 50 1.99 0 0.04
7/10/2018 1:00 PM 89 46 2.1 0 0.33
7/10/2018 2:00 PM 90 44 2.29 0 0.57
7/10/2018 3:00 PM 92 42 1.85 0 0.23
7/10/2018 4:00 PM 88 44 0.43 0 2.05
7/10/2018 5:00 PM 79 62 0.14 0 1.96
7/10/2018 6:00 PM 80 62 0.21 0 0.12
7/10/2018 7:00 PM 81 62 0.29 0 0.38
7/10/2018 8:00 PM 82 64 0.15 0 0.02
7/10/2018 9:00 PM 80 69 0.02 0 0.12
7/10/2018 10:00 PM 79 74 0 0 0.07
7/10/2018 11:00 PM 78 74 0 0 0
Data Summary 79 68 13.86 0.00 0.31